Aérodrome :
LOGIN :

S'inscrire | Disclaimer

   EN    FR    IT 

 










Légende :    VFR   VFR Marginal   IFR   IFR Intensif   IFR Très Intensif
Visi : 
Plafond : 
>= 8 km
>= 3000ft
5 à 8 km
1000 à 3000 ft
1500m à 5 km
500 à 1000 ft
800 à 1500m
200 à 500 ft
< 800m
< 200 ft
Symboles :   Orages  Brouillard  Fortes neiges  Fortes précipitations  Vent > 20 kt
SIGMETs :   Divers  Orages  Givrage  Turbulence  Onde Orograph.  Cendres Volcan.






- Altitude de l'aérodrome : 1768 ft


LEHC - Huesca Pirineos

DERNIER METAR :
  • 222000Z AUTO 10014KT 070V150 8000 -SHRA OVC003 09/09 Q0991

METARs EXPIRÉS :
  • 221930Z AUTO 10012KT 070V140 6000 -SHRA OVC002 09/09 Q0991 RESHRA
  • 221900Z AUTO 11013KT 080V150 6000 2500NW SHRA OVC002/// ///TCU 09/09 Q0992
  • 221830Z AUTO 11015KT 080V140 5000 BR OVC002 09/09 Q0992
  • 221800Z AUTO 10015KT 070V140 4500 -RA BR OVC004 09/09 Q0993
  • 221730Z AUTO 09014KT 060V120 5000 -RA BR BKN004 09/08 Q0992

TAF TAF LEHC
Valide du 22 à 15h jusqu'au 23 à 15h UTC


221400Z 2215/2315 10014KT 9999 SCT030 TX11/2313Z TN06/2306Z
TEMPO 2215/2223 2000 SHRA BKN010 BKN020TCU
BECMG 2222/2224 VRB04KT
BECMG 2306/2308 29012KT
TEMPO 2308/2315 29020G30KT



MET'MAP, la Météo Aéronautique d'un coup d'oeil ! - Copyright ORBIFLY Décembre 2007 - Disclaimer

ORBIFLY MET'MAP TEAM :

Programmation & Développement : Alexandra Zaïnal
Conception & Développement : Baudouin d'Aumeries
Co-Programmation & Développement : Marc-Olivier Méhu
Soutien technique & logistique : Manuel Goepfert

Contact : metmap@orbifly.com




SOURCES & CREDITS :

   NOAA